Skip Navigation Links
NOAA logo - Click to go to the NOAA homepage
NOAA's National Weather Service
Alaska Aviation Weather Unit
  NWS logo - Click to go to the NWS homepage
Left Navbar Graphic     21 AKDT = 05 GMT

   
NOAA is celebrating 200 years of science, service, and stewardship. Visit the NOAA 200th celebration Web site to learn more.
USA.gov is the U.S. Government's official Web portal to all Federal, state and local government Web resources and services.
Facebook
NWS on Facebook

AAWU Home :: Display TAF Add Bookmark
METAR PAJC 270056Z AUTO 09007KT 10SM -RA SCT030 OVC049 06/02 A2959 RMK
     AO2 RAB44 SLP019 P0000 T00610022=

METAR PAJC 270156Z AUTO 10006KT 10SM OVC034 07/02 A2959 RMK AO2
 RAE12 SLP019 P0000 T00670022=

METAR PAJC 270356Z AUTO 32004KT 10SM CLR 06/03 A2960 RMK AO2 SLP025
     T00610028=

METAR PAJC 270456Z AUTO 00000KT 10SM OVC031 06/03 A2962 RMK AO2 SLP031
     T00560028=


NOAA's National Weather Service
Alaska Aviation Weather Unit
6930 Sand Lake Road
Anchorage, AK 99502-1845
Disclaimer
Credits
Glossary
Privacy Policy
About Us
Career Opportunities
Contact AAWU Internet Services Site last modified: April, 17th 2012